sensor_id;sensor_type;location;lat;lon;timestamp;pressure;altitude;pressure_sealevel;temperature;humidity
62789;BME280;66401;42.016;21.454;2023-06-22T00:00:51;98559.59;;;22.06;72.49
62789;BME280;66401;42.016;21.454;2023-06-22T00:03:18;98550.34;;;22.08;71.56
62789;BME280;66401;42.016;21.454;2023-06-22T00:05:45;98562.31;;;22.11;71.40
62789;BME280;66401;42.016;21.454;2023-06-22T00:08:10;98544.13;;;21.87;70.58
62789;BME280;66401;42.016;21.454;2023-06-22T00:10:36;98542.59;;;21.91;71.08
62789;BME280;66401;42.016;21.454;2023-06-22T00:13:01;98547.31;;;21.84;69.93
62789;BME280;66401;42.016;21.454;2023-06-22T00:15:27;98555.13;;;21.59;70.47
62789;BME280;66401;42.016;21.454;2023-06-22T00:17:53;98539.56;;;21.30;72.93
62789;BME280;66401;42.016;21.454;2023-06-22T00:20:18;98536.69;;;21.37;73.70
62789;BME280;66401;42.016;21.454;2023-06-22T00:22:44;98549.41;;;21.35;74.20
62789;BME280;66401;42.016;21.454;2023-06-22T00:25:10;98556.50;;;21.66;73.11
62789;BME280;66401;42.016;21.454;2023-06-22T00:27:36;98539.94;;;21.44;72.91
62789;BME280;66401;42.016;21.454;2023-06-22T00:30:03;98553.41;;;21.37;74.01
62789;BME280;66401;42.016;21.454;2023-06-22T00:32:28;98527.53;;;21.18;75.17
62789;BME280;66401;42.016;21.454;2023-06-22T00:34:54;98522.91;;;21.35;73.79
62789;BME280;66401;42.016;21.454;2023-06-22T00:37:19;98536.25;;;21.18;75.33
62789;BME280;66401;42.016;21.454;2023-06-22T00:39:53;98545.97;;;21.34;74.41
62789;BME280;66401;42.016;21.454;2023-06-22T00:42:19;98531.69;;;21.40;73.99
62789;BME280;66401;42.016;21.454;2023-06-22T00:44:45;98560.34;;;21.49;73.71
62789;BME280;66401;42.016;21.454;2023-06-22T00:47:13;98559.22;;;21.39;74.11
62789;BME280;66401;42.016;21.454;2023-06-22T00:49:40;98561.38;;;21.42;74.05
62789;BME280;66401;42.016;21.454;2023-06-22T00:52:07;98569.34;;;21.42;74.38
62789;BME280;66401;42.016;21.454;2023-06-22T00:54:35;98554.75;;;21.13;75.39
62789;BME280;66401;42.016;21.454;2023-06-22T00:57:02;98559.81;;;21.14;74.99
62789;BME280;66401;42.016;21.454;2023-06-22T00:59:27;98579.69;;;21.17;75.89
62789;BME280;66401;42.016;21.454;2023-06-22T01:01:54;98569.81;;;21.07;75.30
62789;BME280;66401;42.016;21.454;2023-06-22T01:04:20;98572.47;;;21.34;74.79
62789;BME280;66401;42.016;21.454;2023-06-22T01:06:58;98584.59;;;21.30;76.14
62789;BME280;66401;42.016;21.454;2023-06-22T01:09:33;98583.50;;;21.26;75.94
62789;BME280;66401;42.016;21.454;2023-06-22T01:12:04;98572.28;;;21.19;75.65
62789;BME280;66401;42.016;21.454;2023-06-22T01:14:47;98582.28;;;21.12;76.67
62789;BME280;66401;42.016;21.454;2023-06-22T01:17:19;98553.75;;;20.87;77.28
62789;BME280;66401;42.016;21.454;2023-06-22T01:19:50;98596.03;;;21.04;77.79
62789;BME280;66401;42.016;21.454;2023-06-22T01:22:23;98582.81;;;21.09;77.20
62789;BME280;66401;42.016;21.454;2023-06-22T01:30:27;98598.31;;;20.68;80.91
62789;BME280;66401;42.016;21.454;2023-06-22T01:32:57;98595.41;;;20.97;79.40
62789;BME280;66401;42.016;21.454;2023-06-22T01:35:24;98588.78;;;20.94;78.71
62789;BME280;66401;42.016;21.454;2023-06-22T01:37:50;98592.22;;;20.95;79.08
62789;BME280;66401;42.016;21.454;2023-06-22T01:40:16;98604.31;;;20.85;80.39
62789;BME280;66401;42.016;21.454;2023-06-22T01:42:42;98602.31;;;20.98;79.13
62789;BME280;66401;42.016;21.454;2023-06-22T01:45:09;98595.88;;;20.89;79.02
62789;BME280;66401;42.016;21.454;2023-06-22T01:47:36;98597.16;;;20.86;79.98
62789;BME280;66401;42.016;21.454;2023-06-22T01:50:02;98610.94;;;20.88;80.16
62789;BME280;66401;42.016;21.454;2023-06-22T01:52:27;98582.53;;;20.78;79.87
62789;BME280;66401;42.016;21.454;2023-06-22T01:54:53;98600.53;;;20.76;80.43
62789;BME280;66401;42.016;21.454;2023-06-22T01:57:18;98598.91;;;20.75;79.72
62789;BME280;66401;42.016;21.454;2023-06-22T02:00:01;98607.53;;;20.93;78.64
62789;BME280;66401;42.016;21.454;2023-06-22T02:02:34;98617.50;;;20.80;79.02
62789;BME280;66401;42.016;21.454;2023-06-22T02:05:06;98617.28;;;20.60;80.51
62789;BME280;66401;42.016;21.454;2023-06-22T02:07:35;98591.50;;;20.50;79.72
62789;BME280;66401;42.016;21.454;2023-06-22T02:10:04;98615.72;;;20.86;78.38
62789;BME280;66401;42.016;21.454;2023-06-22T02:12:31;98617.88;;;20.67;78.38
62789;BME280;66401;42.016;21.454;2023-06-22T02:14:59;98599.47;;;20.55;77.96
62789;BME280;66401;42.016;21.454;2023-06-22T02:17:26;98619.09;;;20.81;77.47
62789;BME280;66401;42.016;21.454;2023-06-22T02:19:52;98596.34;;;20.37;78.58
62789;BME280;66401;42.016;21.454;2023-06-22T02:22:17;98622.06;;;20.63;78.20
62789;BME280;66401;42.016;21.454;2023-06-22T02:24:43;98616.03;;;20.46;78.53
62789;BME280;66401;42.016;21.454;2023-06-22T02:27:08;98593.28;;;20.45;77.99
62789;BME280;66401;42.016;21.454;2023-06-22T02:29:34;98616.22;;;20.39;79.13
62789;BME280;66401;42.016;21.454;2023-06-22T02:32:00;98620.38;;;20.35;79.09
62789;BME280;66401;42.016;21.454;2023-06-22T02:34:26;98615.59;;;20.32;79.74
62789;BME280;66401;42.016;21.454;2023-06-22T02:36:51;98619.72;;;20.45;79.02
62789;BME280;66401;42.016;21.454;2023-06-22T02:39:19;98613.97;;;20.48;78.44
62789;BME280;66401;42.016;21.454;2023-06-22T02:41:45;98611.78;;;20.45;77.61
62789;BME280;66401;42.016;21.454;2023-06-22T02:44:11;98606.31;;;20.29;78.91
62789;BME280;66401;42.016;21.454;2023-06-22T02:46:36;98609.00;;;20.35;78.94
62789;BME280;66401;42.016;21.454;2023-06-22T02:49:02;98613.00;;;20.15;80.45
62789;BME280;66401;42.016;21.454;2023-06-22T02:51:27;98608.41;;;20.27;79.18
62789;BME280;66401;42.016;21.454;2023-06-22T02:53:53;98609.50;;;20.10;79.90
62789;BME280;66401;42.016;21.454;2023-06-22T02:56:22;98619.34;;;20.14;80.54
62789;BME280;66401;42.016;21.454;2023-06-22T02:58:51;98620.31;;;20.08;80.33
62789;BME280;66401;42.016;21.454;2023-06-22T03:01:17;98593.25;;;20.01;79.73
62789;BME280;66401;42.016;21.454;2023-06-22T03:03:48;98625.16;;;19.78;80.98
62789;BME280;66401;42.016;21.454;2023-06-22T03:06:14;98616.53;;;19.65;81.80
62789;BME280;66401;42.016;21.454;2023-06-22T03:08:39;98634.13;;;19.77;82.79
62789;BME280;66401;42.016;21.454;2023-06-22T03:11:06;98629.13;;;19.97;81.48
62789;BME280;66401;42.016;21.454;2023-06-22T03:13:33;98632.50;;;20.09;80.71
62789;BME280;66401;42.016;21.454;2023-06-22T03:15:58;98631.63;;;20.25;79.64
62789;BME280;66401;42.016;21.454;2023-06-22T03:18:24;98631.59;;;20.20;80.40
62789;BME280;66401;42.016;21.454;2023-06-22T03:20:49;98645.63;;;20.04;81.59
62789;BME280;66401;42.016;21.454;2023-06-22T03:23:15;98624.91;;;19.96;80.42
62789;BME280;66401;42.016;21.454;2023-06-22T03:25:41;98636.78;;;20.15;79.90
62789;BME280;66401;42.016;21.454;2023-06-22T03:28:06;98632.69;;;20.24;79.68
62789;BME280;66401;42.016;21.454;2023-06-22T03:30:32;98645.31;;;20.17;80.90
62789;BME280;66401;42.016;21.454;2023-06-22T03:32:57;98664.22;;;20.09;81.84
62789;BME280;66401;42.016;21.454;2023-06-22T03:35:23;98664.16;;;20.26;81.15
62789;BME280;66401;42.016;21.454;2023-06-22T03:37:48;98663.56;;;20.19;81.92
62789;BME280;66401;42.016;21.454;2023-06-22T03:40:14;98656.69;;;20.18;81.61
62789;BME280;66401;42.016;21.454;2023-06-22T03:42:39;98646.38;;;19.99;82.42
62789;BME280;66401;42.016;21.454;2023-06-22T03:45:05;98666.81;;;19.87;83.64
62789;BME280;66401;42.016;21.454;2023-06-22T03:47:31;98662.16;;;19.44;84.41
62789;BME280;66401;42.016;21.454;2023-06-22T03:49:58;98673.34;;;19.34;85.46
62789;BME280;66401;42.016;21.454;2023-06-22T03:52:24;98679.75;;;19.55;84.83
62789;BME280;66401;42.016;21.454;2023-06-22T03:54:50;98685.03;;;19.55;84.43
62789;BME280;66401;42.016;21.454;2023-06-22T03:57:16;98663.09;;;19.38;85.16
62789;BME280;66401;42.016;21.454;2023-06-22T03:59:41;98675.41;;;19.49;84.61
62789;BME280;66401;42.016;21.454;2023-06-22T04:02:07;98665.16;;;19.36;85.13
62789;BME280;66401;42.016;21.454;2023-06-22T04:04:33;98663.25;;;19.48;85.06
62789;BME280;66401;42.016;21.454;2023-06-22T04:07:00;98669.34;;;19.49;84.84
62789;BME280;66401;42.016;21.454;2023-06-22T04:09:26;98689.72;;;19.82;85.12
62789;BME280;66401;42.016;21.454;2023-06-22T04:11:51;98677.69;;;19.57;84.24
62789;BME280;66401;42.016;21.454;2023-06-22T04:14:17;98685.69;;;19.96;83.07
62789;BME280;66401;42.016;21.454;2023-06-22T04:16:42;98679.84;;;20.11;82.95
62789;BME280;66401;42.016;21.454;2023-06-22T04:19:08;98662.69;;;20.13;83.51
62789;BME280;66401;42.016;21.454;2023-06-22T04:21:39;98666.03;;;20.25;82.03
62789;BME280;66401;42.016;21.454;2023-06-22T04:24:04;98691.13;;;20.23;82.04
62789;BME280;66401;42.016;21.454;2023-06-22T04:26:30;98666.81;;;20.43;81.18
62789;BME280;66401;42.016;21.454;2023-06-22T04:28:56;98687.25;;;20.69;80.05
62789;BME280;66401;42.016;21.454;2023-06-22T04:31:21;98673.47;;;20.67;79.80
62789;BME280;66401;42.016;21.454;2023-06-22T04:33:57;98696.13;;;20.41;81.00
62789;BME280;66401;42.016;21.454;2023-06-22T04:36:39;98692.34;;;20.15;82.77
62789;BME280;66401;42.016;21.454;2023-06-22T04:39:10;98696.28;;;20.13;83.25
62789;BME280;66401;42.016;21.454;2023-06-22T04:41:37;98678.28;;;20.32;82.18
62789;BME280;66401;42.016;21.454;2023-06-22T04:46:38;98703.44;;;20.51;81.09
62789;BME280;66401;42.016;21.454;2023-06-22T04:49:07;98703.44;;;20.51;81.31
62789;BME280;66401;42.016;21.454;2023-06-22T04:51:40;98701.28;;;20.48;81.11
62789;BME280;66401;42.016;21.454;2023-06-22T04:54:07;98694.16;;;20.48;81.46
62789;BME280;66401;42.016;21.454;2023-06-22T04:56:34;98698.06;;;20.46;81.66
62789;BME280;66401;42.016;21.454;2023-06-22T04:59:00;98700.00;;;20.34;82.09
62789;BME280;66401;42.016;21.454;2023-06-22T05:01:25;98699.56;;;20.42;81.87
62789;BME280;66401;42.016;21.454;2023-06-22T05:03:52;98696.28;;;20.51;82.20
62789;BME280;66401;42.016;21.454;2023-06-22T05:06:22;98703.06;;;20.64;80.99
62789;BME280;66401;42.016;21.454;2023-06-22T05:08:53;98698.16;;;20.95;78.97
62789;BME280;66401;42.016;21.454;2023-06-22T05:11:24;98708.22;;;20.98;79.44
62789;BME280;66401;42.016;21.454;2023-06-22T05:13:49;98690.41;;;20.93;78.73
62789;BME280;66401;42.016;21.454;2023-06-22T05:16:15;98706.56;;;20.92;78.62
62789;BME280;66401;42.016;21.454;2023-06-22T05:18:41;98700.25;;;21.20;77.50
62789;BME280;66401;42.016;21.454;2023-06-22T05:21:07;98691.09;;;21.27;77.74
62789;BME280;66401;42.016;21.454;2023-06-22T05:23:32;98656.34;;;21.02;76.91
62789;BME280;66401;42.016;21.454;2023-06-22T05:25:58;98695.69;;;21.37;77.14
62789;BME280;66401;42.016;21.454;2023-06-22T05:28:23;98692.16;;;21.31;77.33
62789;BME280;66401;42.016;21.454;2023-06-22T05:30:49;98707.25;;;21.58;77.09
62789;BME280;66401;42.016;21.454;2023-06-22T05:33:14;98699.66;;;21.39;77.02
62789;BME280;66401;42.016;21.454;2023-06-22T05:35:40;98705.47;;;21.36;76.81
62789;BME280;66401;42.016;21.454;2023-06-22T05:38:05;98709.06;;;21.52;76.59
62789;BME280;66401;42.016;21.454;2023-06-22T05:40:30;98692.34;;;21.52;77.29
62789;BME280;66401;42.016;21.454;2023-06-22T05:42:56;98704.28;;;21.81;76.64
62789;BME280;66401;42.016;21.454;2023-06-22T05:45:21;98698.84;;;21.66;76.26
62789;BME280;66401;42.016;21.454;2023-06-22T05:47:47;98703.75;;;21.84;76.51
62789;BME280;66401;42.016;21.454;2023-06-22T05:50:13;98710.31;;;22.09;74.51
62789;BME280;66401;42.016;21.454;2023-06-22T05:52:39;98720.34;;;22.44;74.06
62789;BME280;66401;42.016;21.454;2023-06-22T05:55:05;98718.53;;;22.49;72.93
62789;BME280;66401;42.016;21.454;2023-06-22T05:57:31;98700.53;;;22.62;71.82
62789;BME280;66401;42.016;21.454;2023-06-22T05:59:56;98699.28;;;22.79;70.82
62789;BME280;66401;42.016;21.454;2023-06-22T06:02:22;98714.25;;;23.01;71.38
62789;BME280;66401;42.016;21.454;2023-06-22T06:04:47;98695.34;;;22.92;70.23
62789;BME280;66401;42.016;21.454;2023-06-22T06:07:12;98699.53;;;22.78;71.40
62789;BME280;66401;42.016;21.454;2023-06-22T06:09:38;98683.84;;;22.71;72.37
62789;BME280;66401;42.016;21.454;2023-06-22T06:12:07;98689.50;;;22.95;71.45
62789;BME280;66401;42.016;21.454;2023-06-22T06:14:33;98702.06;;;23.20;72.25
62789;BME280;66401;42.016;21.454;2023-06-22T06:16:58;98702.34;;;23.29;70.31
62789;BME280;66401;42.016;21.454;2023-06-22T06:19:24;98699.16;;;23.42;72.43
62789;BME280;66401;42.016;21.454;2023-06-22T06:21:49;98695.13;;;23.09;70.51
62789;BME280;66401;42.016;21.454;2023-06-22T06:24:15;98705.47;;;23.05;71.76
62789;BME280;66401;42.016;21.454;2023-06-22T06:26:42;98698.63;;;23.20;71.67
62789;BME280;66401;42.016;21.454;2023-06-22T06:29:07;98693.28;;;23.09;70.93
62789;BME280;66401;42.016;21.454;2023-06-22T06:31:33;98693.28;;;23.25;70.58
62789;BME280;66401;42.016;21.454;2023-06-22T06:33:58;98706.09;;;23.53;71.02
62789;BME280;66401;42.016;21.454;2023-06-22T06:36:24;98694.66;;;23.83;68.54
62789;BME280;66401;42.016;21.454;2023-06-22T06:38:49;98671.78;;;24.08;68.46
62789;BME280;66401;42.016;21.454;2023-06-22T06:41:15;98690.63;;;24.32;67.91
62789;BME280;66401;42.016;21.454;2023-06-22T06:43:41;98674.09;;;24.40;66.62
62789;BME280;66401;42.016;21.454;2023-06-22T06:46:10;98683.88;;;24.65;67.58
62789;BME280;66401;42.016;21.454;2023-06-22T06:48:36;98683.03;;;24.74;67.59
62789;BME280;66401;42.016;21.454;2023-06-22T06:51:02;98684.00;;;24.94;65.99
62789;BME280;66401;42.016;21.454;2023-06-22T06:53:27;98678.63;;;24.99;65.67
62789;BME280;66401;42.016;21.454;2023-06-22T06:55:54;98685.22;;;25.17;64.90
62789;BME280;66401;42.016;21.454;2023-06-22T06:58:20;98674.63;;;25.06;65.04
62789;BME280;66401;42.016;21.454;2023-06-22T07:00:45;98689.66;;;25.31;64.21
62789;BME280;66401;42.016;21.454;2023-06-22T07:03:11;98692.00;;;25.38;65.97
62789;BME280;66401;42.016;21.454;2023-06-22T07:05:36;98687.41;;;25.49;64.40
62789;BME280;66401;42.016;21.454;2023-06-22T07:08:02;98693.06;;;25.76;64.50
62789;BME280;66401;42.016;21.454;2023-06-22T07:10:28;98692.97;;;25.86;63.88
62789;BME280;66401;42.016;21.454;2023-06-22T07:12:54;98690.97;;;26.02;64.20
62789;BME280;66401;42.016;21.454;2023-06-22T07:15:19;98690.53;;;26.19;65.01
62789;BME280;66401;42.016;21.454;2023-06-22T07:17:45;98685.97;;;26.19;61.22
62789;BME280;66401;42.016;21.454;2023-06-22T07:20:11;98670.31;;;25.84;62.85
62789;BME280;66401;42.016;21.454;2023-06-22T07:22:41;98683.56;;;25.94;63.68
62789;BME280;66401;42.016;21.454;2023-06-22T07:25:07;98686.28;;;26.18;62.53
62789;BME280;66401;42.016;21.454;2023-06-22T07:27:43;98679.06;;;26.42;63.03
62789;BME280;66401;42.016;21.454;2023-06-22T07:30:10;98697.31;;;26.59;62.62
62789;BME280;66401;42.016;21.454;2023-06-22T07:32:36;98697.25;;;26.64;60.26
62789;BME280;66401;42.016;21.454;2023-06-22T07:35:02;98694.84;;;26.63;60.07
62789;BME280;66401;42.016;21.454;2023-06-22T07:37:28;98684.53;;;26.56;61.38
62789;BME280;66401;42.016;21.454;2023-06-22T07:39:57;98687.50;;;26.55;60.37
62789;BME280;66401;42.016;21.454;2023-06-22T07:42:26;98677.22;;;26.62;59.99
62789;BME280;66401;42.016;21.454;2023-06-22T07:44:51;98667.44;;;26.76;60.24
62789;BME280;66401;42.016;21.454;2023-06-22T07:47:17;98670.13;;;26.95;61.09
62789;BME280;66401;42.016;21.454;2023-06-22T07:49:50;98679.69;;;27.20;61.27
62789;BME280;66401;42.016;21.454;2023-06-22T07:52:15;98678.53;;;27.26;60.33
62789;BME280;66401;42.016;21.454;2023-06-22T07:54:41;98671.50;;;27.30;59.53
62789;BME280;66401;42.016;21.454;2023-06-22T07:57:06;98663.22;;;27.31;59.44
62789;BME280;66401;42.016;21.454;2023-06-22T07:59:32;98681.25;;;27.39;57.58
62789;BME280;66401;42.016;21.454;2023-06-22T08:01:57;98661.50;;;27.54;59.71
62789;BME280;66401;42.016;21.454;2023-06-22T08:04:23;98678.53;;;27.77;60.18
62789;BME280;66401;42.016;21.454;2023-06-22T08:06:48;98659.00;;;27.77;57.12
62789;BME280;66401;42.016;21.454;2023-06-22T08:09:31;98664.09;;;27.92;58.15
62789;BME280;66401;42.016;21.454;2023-06-22T08:11:56;98654.28;;;28.01;56.09
62789;BME280;66401;42.016;21.454;2023-06-22T08:14:25;98665.72;;;28.20;55.94
62789;BME280;66401;42.016;21.454;2023-06-22T08:16:56;98659.91;;;27.86;55.22
62789;BME280;66401;42.016;21.454;2023-06-22T08:19:22;98667.44;;;27.51;56.26
62789;BME280;66401;42.016;21.454;2023-06-22T08:21:47;98673.28;;;27.53;55.55
62789;BME280;66401;42.016;21.454;2023-06-22T08:24:13;98639.56;;;27.20;56.78
62789;BME280;66401;42.016;21.454;2023-06-22T08:26:38;98646.91;;;27.47;56.24
62789;BME280;66401;42.016;21.454;2023-06-22T08:29:04;98647.44;;;27.62;55.77
62789;BME280;66401;42.016;21.454;2023-06-22T08:31:30;98638.97;;;27.74;56.34
62789;BME280;66401;42.016;21.454;2023-06-22T08:33:56;98636.63;;;28.00;56.30
62789;BME280;66401;42.016;21.454;2023-06-22T08:36:21;98655.38;;;28.28;54.97
62789;BME280;66401;42.016;21.454;2023-06-22T08:38:47;98620.97;;;28.35;54.00
62789;BME280;66401;42.016;21.454;2023-06-22T08:41:19;98646.38;;;28.37;55.17
62789;BME280;66401;42.016;21.454;2023-06-22T08:43:44;98640.84;;;28.47;53.16
62789;BME280;66401;42.016;21.454;2023-06-22T08:46:10;98622.50;;;28.77;52.98
62789;BME280;66401;42.016;21.454;2023-06-22T08:48:36;98634.19;;;28.95;53.00
62789;BME280;66401;42.016;21.454;2023-06-22T08:51:02;98635.66;;;29.23;55.62
62789;BME280;66401;42.016;21.454;2023-06-22T08:53:28;98631.78;;;29.52;53.51
62789;BME280;66401;42.016;21.454;2023-06-22T08:55:54;98628.59;;;29.27;51.06
62789;BME280;66401;42.016;21.454;2023-06-22T08:58:19;98617.25;;;29.53;52.25
62789;BME280;66401;42.016;21.454;2023-06-22T09:00:46;98616.66;;;29.11;49.38
62789;BME280;66401;42.016;21.454;2023-06-22T09:03:12;98606.66;;;29.25;51.72
62789;BME280;66401;42.016;21.454;2023-06-22T09:05:37;98616.81;;;29.59;52.27
62789;BME280;66401;42.016;21.454;2023-06-22T09:08:03;98603.22;;;29.56;49.63
62789;BME280;66401;42.016;21.454;2023-06-22T09:10:29;98610.44;;;29.24;49.51
62789;BME280;66401;42.016;21.454;2023-06-22T09:12:54;98598.81;;;29.60;51.00
62789;BME280;66401;42.016;21.454;2023-06-22T09:15:20;98595.41;;;29.68;48.92
62789;BME280;66401;42.016;21.454;2023-06-22T09:17:46;98585.41;;;29.60;50.35
62789;BME280;66401;42.016;21.454;2023-06-22T09:20:12;98610.94;;;29.49;47.09
62789;BME280;66401;42.016;21.454;2023-06-22T09:22:37;98578.59;;;29.31;47.13
62789;BME280;66401;42.016;21.454;2023-06-22T09:25:04;98595.19;;;29.56;46.64
62789;BME280;66401;42.016;21.454;2023-06-22T09:27:30;98592.84;;;29.63;48.14
62789;BME280;66401;42.016;21.454;2023-06-22T09:29:56;98594.09;;;29.97;47.15
62789;BME280;66401;42.016;21.454;2023-06-22T09:32:24;98585.97;;;30.19;49.29
62789;BME280;66401;42.016;21.454;2023-06-22T09:34:49;98578.91;;;30.49;50.57
62789;BME280;66401;42.016;21.454;2023-06-22T09:37:15;98596.50;;;30.81;46.15
62789;BME280;66401;42.016;21.454;2023-06-22T09:39:40;98590.97;;;30.95;47.84
62789;BME280;66401;42.016;21.454;2023-06-22T09:42:06;98571.53;;;30.89;44.39
62789;BME280;66401;42.016;21.454;2023-06-22T09:44:32;98582.28;;;30.89;45.04
62789;BME280;66401;42.016;21.454;2023-06-22T09:46:57;98586.56;;;30.90;45.97
62789;BME280;66401;42.016;21.454;2023-06-22T09:49:23;98574.31;;;30.32;46.13
62789;BME280;66401;42.016;21.454;2023-06-22T09:51:48;98576.72;;;30.68;46.68
62789;BME280;66401;42.016;21.454;2023-06-22T09:54:15;98563.00;;;30.70;45.41
62789;BME280;66401;42.016;21.454;2023-06-22T09:56:40;98571.53;;;30.89;43.47
62789;BME280;66401;42.016;21.454;2023-06-22T09:59:06;98556.00;;;30.52;45.68
62789;BME280;66401;42.016;21.454;2023-06-22T10:01:31;98562.31;;;30.56;45.54
62789;BME280;66401;42.016;21.454;2023-06-22T10:03:57;98563.41;;;30.55;45.55
62789;BME280;66401;42.016;21.454;2023-06-22T10:06:22;98559.00;;;30.76;45.99
62789;BME280;66401;42.016;21.454;2023-06-22T10:08:53;98557.91;;;30.77;43.35
62789;BME280;66401;42.016;21.454;2023-06-22T10:11:18;98556.66;;;30.74;43.87
62789;BME280;66401;42.016;21.454;2023-06-22T10:13:44;98543.34;;;30.78;46.25
62789;BME280;66401;42.016;21.454;2023-06-22T10:16:09;98549.63;;;31.17;45.30
62789;BME280;66401;42.016;21.454;2023-06-22T10:18:35;98557.13;;;31.67;42.30
62789;BME280;66401;42.016;21.454;2023-06-22T10:21:01;98543.13;;;31.82;42.62
62789;BME280;66401;42.016;21.454;2023-06-22T10:23:27;98544.03;;;31.95;40.16
62789;BME280;66401;42.016;21.454;2023-06-22T10:25:53;98548.31;;;32.16;41.88
62789;BME280;66401;42.016;21.454;2023-06-22T10:28:18;98522.00;;;32.13;43.20
62789;BME280;66401;42.016;21.454;2023-06-22T10:30:44;98538.38;;;32.38;41.20
62789;BME280;66401;42.016;21.454;2023-06-22T10:33:11;98536.94;;;32.11;40.00
62789;BME280;66401;42.016;21.454;2023-06-22T10:35:36;98550.56;;;32.14;43.59
62789;BME280;66401;42.016;21.454;2023-06-22T10:38:05;98544.38;;;32.14;41.04
62789;BME280;66401;42.016;21.454;2023-06-22T10:40:31;98532.53;;;32.06;40.59
62789;BME280;66401;42.016;21.454;2023-06-22T10:42:57;98527.16;;;32.06;39.18
62789;BME280;66401;42.016;21.454;2023-06-22T10:45:23;98526.38;;;32.06;39.62
62789;BME280;66401;42.016;21.454;2023-06-22T10:47:48;98526.47;;;31.88;42.53
62789;BME280;66401;42.016;21.454;2023-06-22T10:50:14;98507.94;;;31.49;40.59
62789;BME280;66401;42.016;21.454;2023-06-22T10:52:39;98501.75;;;31.48;46.65
62789;BME280;66401;42.016;21.454;2023-06-22T10:55:07;98513.19;;;31.75;44.32
62789;BME280;66401;42.016;21.454;2023-06-22T10:57:35;98515.31;;;31.99;44.54
62789;BME280;66401;42.016;21.454;2023-06-22T11:00:02;98497.28;;;31.90;42.22
62789;BME280;66401;42.016;21.454;2023-06-22T11:02:31;98508.63;;;32.05;42.45
62789;BME280;66401;42.016;21.454;2023-06-22T11:04:56;98507.56;;;31.97;42.43
62789;BME280;66401;42.016;21.454;2023-06-22T11:07:25;98506.63;;;31.93;41.61
62789;BME280;66401;42.016;21.454;2023-06-22T11:09:52;98493.34;;;31.88;42.38
62789;BME280;66401;42.016;21.454;2023-06-22T11:12:18;98488.22;;;31.66;41.43
62789;BME280;66401;42.016;21.454;2023-06-22T11:14:43;98500.44;;;31.54;41.78
62789;BME280;66401;42.016;21.454;2023-06-22T11:17:09;98503.03;;;31.42;40.96
62789;BME280;66401;42.016;21.454;2023-06-22T11:19:34;98455.66;;;31.20;43.18
62789;BME280;66401;42.016;21.454;2023-06-22T11:22:00;98499.81;;;31.57;40.38
62789;BME280;66401;42.016;21.454;2023-06-22T11:24:25;98490.75;;;31.62;42.74
62789;BME280;66401;42.016;21.454;2023-06-22T11:26:51;98496.66;;;31.55;41.57
62789;BME280;66401;42.016;21.454;2023-06-22T11:29:16;98497.72;;;31.63;41.87
62789;BME280;66401;42.016;21.454;2023-06-22T11:31:42;98462.13;;;31.57;39.86
62789;BME280;66401;42.016;21.454;2023-06-22T11:34:08;98490.69;;;31.41;39.76
62789;BME280;66401;42.016;21.454;2023-06-22T11:36:34;98463.78;;;31.41;41.86
62789;BME280;66401;42.016;21.454;2023-06-22T11:39:01;98468.50;;;31.44;40.74
62789;BME280;66401;42.016;21.454;2023-06-22T11:41:26;98454.19;;;31.14;40.37
62789;BME280;66401;42.016;21.454;2023-06-22T11:43:52;98472.00;;;31.45;41.09
62789;BME280;66401;42.016;21.454;2023-06-22T11:46:17;98482.03;;;31.65;40.55
62789;BME280;66401;42.016;21.454;2023-06-22T11:48:43;98454.06;;;31.57;40.30
62789;BME280;66401;42.016;21.454;2023-06-22T11:51:08;98468.06;;;31.42;40.26
62789;BME280;66401;42.016;21.454;2023-06-22T11:53:35;98477.50;;;31.57;41.09
62789;BME280;66401;42.016;21.454;2023-06-22T11:56:01;98487.63;;;31.89;42.61
62789;BME280;66401;42.016;21.454;2023-06-22T11:58:26;98492.63;;;32.00;40.91
62789;BME280;66401;42.016;21.454;2023-06-22T12:00:52;98478.75;;;31.89;41.15
62789;BME280;66401;42.016;21.454;2023-06-22T12:03:18;98485.28;;;32.09;43.92
62789;BME280;66401;42.016;21.454;2023-06-22T12:05:45;98466.88;;;32.11;41.06
62789;BME280;66401;42.016;21.454;2023-06-22T12:08:10;98468.78;;;32.10;38.38
62789;BME280;66401;42.016;21.454;2023-06-22T12:10:37;98459.84;;;31.98;39.08
62789;BME280;66401;42.016;21.454;2023-06-22T12:13:02;98454.59;;;32.01;39.79
62789;BME280;66401;42.016;21.454;2023-06-22T12:15:28;98482.88;;;32.16;38.12
62789;BME280;66401;42.016;21.454;2023-06-22T12:17:53;98446.31;;;32.06;37.29
62789;BME280;66401;42.016;21.454;2023-06-22T12:20:19;98446.38;;;32.18;38.54
62789;BME280;66401;42.016;21.454;2023-06-22T12:22:44;98448.06;;;32.23;38.19
62789;BME280;66401;42.016;21.454;2023-06-22T12:25:10;98480.38;;;32.32;37.91
62789;BME280;66401;42.016;21.454;2023-06-22T12:27:36;98466.31;;;32.26;38.00
62789;BME280;66401;42.016;21.454;2023-06-22T12:30:02;98466.81;;;32.19;35.24
62789;BME280;66401;42.016;21.454;2023-06-22T12:32:28;98447.97;;;31.99;36.54
62789;BME280;66401;42.016;21.454;2023-06-22T12:34:54;98453.06;;;32.12;36.25
62789;BME280;66401;42.016;21.454;2023-06-22T12:37:19;98449.06;;;32.18;36.89
62789;BME280;66401;42.016;21.454;2023-06-22T12:39:45;98448.16;;;32.14;36.78
62789;BME280;66401;42.016;21.454;2023-06-22T12:42:10;98419.50;;;32.10;33.96
62789;BME280;66401;42.016;21.454;2023-06-22T12:44:39;98431.22;;;32.14;33.42
62789;BME280;66401;42.016;21.454;2023-06-22T12:47:05;98441.53;;;32.33;35.45
62789;BME280;66401;42.016;21.454;2023-06-22T12:49:31;98422.13;;;32.18;32.51
62789;BME280;66401;42.016;21.454;2023-06-22T12:51:56;98438.19;;;32.36;34.43
62789;BME280;66401;42.016;21.454;2023-06-22T12:54:22;98421.00;;;32.19;35.44